Bodrum, Turkey
Current Conditions -  °F | °C
As of 9:20 AM on Monday 26 Jan 2015 (Local Time) from LTFE Reporting Station
Rain Showers Rain Showers  
Wind Chill: 50°   Ceiling: 9000
Heat Index: 50°   Visibility: 5mi
Dew Point: 48°   Wind: 5mph
Humidity: 94%   Direction: 50°NE
Pressure: 30.06"   Gusts: NA
Location:  37.04°N, 27.43°E
Report Text: LTFE 260620Z 05004KT 360V080 8000 -SHRA SCT030 BKN090 10/09 Q1018 NOSIG
Loading
Personal Weather Stations






























Interactive Weather Map New forecast layout! Learn more

10-Day Weather Forecast

Advertisements
Track Severe Weather on mobile